Waikoloa, Hawaii
Current Conditions -  °F | °C
As of 9:53 PM on Sunday 19 Oct 2014 (Local Time) from PHKO Reporting Station
Few Clouds Few Clouds  
Wind Chill: 81°   Ceiling: Unl
Heat Index: 87°   Visibility: 10mi
Dew Point: 75°   Wind: 0mph
Humidity: 82%   Direction: NA
Pressure: 29.98"   Gusts: NA
Location:  19.83°N, 155.84°W
Report Text: PHKO 200753Z 00000KT 10SM FEW070 27/24 A2998 RMK AO2 SLP152 T02720239
Loading
Personal Weather Stations






























Interactive Weather Map
Tropical Storm Tracking
New forecast layout! Learn more

10-Day Weather Forecast

Advertisements
Track Severe Weather on mobile